createdAt,value
2023-05-14T00:02:10.552Z,46.28
2023-05-14T00:04:42.779Z,46.37
2023-05-14T00:07:14.951Z,46.22
2023-05-14T00:09:47.187Z,46.49
2023-05-14T00:12:19.336Z,46.52
2023-05-14T00:14:51.404Z,46.62
2023-05-14T00:17:23.780Z,46.83
2023-05-14T00:19:56.127Z,46.77
2023-05-14T00:22:28.462Z,46.77
2023-05-14T00:25:00.732Z,46.81
2023-05-14T00:27:33.102Z,46.84
2023-05-14T00:30:07.061Z,46.86
2023-05-14T00:32:39.291Z,47.02
2023-05-14T00:35:12.272Z,46.94
2023-05-14T00:37:44.683Z,47.10
2023-05-14T00:40:17.043Z,47.11
2023-05-14T00:42:49.330Z,47.05
2023-05-14T00:45:21.935Z,47.09
2023-05-14T00:47:54.914Z,47.08
2023-05-14T00:50:27.491Z,47.16
2023-05-14T00:52:59.630Z,47.16
2023-05-14T00:55:33.355Z,47.33
2023-05-14T00:58:08.962Z,47.36
2023-05-14T01:00:42.329Z,47.42
2023-05-14T01:03:14.826Z,47.32
2023-05-14T01:05:58.946Z,47.53
2023-05-14T01:08:41.096Z,47.45
2023-05-14T01:11:21.634Z,47.42
2023-05-14T01:14:00.209Z,47.56
2023-05-14T01:16:35.233Z,47.56
2023-05-14T01:19:11.567Z,47.57
2023-05-14T01:21:46.360Z,47.63
2023-05-14T01:24:18.714Z,47.62
2023-05-14T01:26:51.222Z,47.57
2023-05-14T01:29:27.406Z,47.73
2023-05-14T01:32:01.416Z,47.60
2023-05-14T01:34:34.291Z,47.70
2023-05-14T01:37:07.915Z,47.61
2023-05-14T01:39:41.432Z,47.87
2023-05-14T01:42:14.464Z,47.67
2023-05-14T01:44:46.801Z,47.72
2023-05-14T01:47:19.096Z,47.83
2023-05-14T01:49:51.721Z,47.82
2023-05-14T01:52:23.829Z,47.82
2023-05-14T01:54:56.090Z,47.92
2023-05-14T01:57:28.412Z,47.83
2023-05-14T02:00:00.580Z,48.04
2023-05-14T02:02:32.731Z,48.03
2023-05-14T02:05:07.013Z,48.07
2023-05-14T02:07:39.627Z,48.15
2023-05-14T02:10:13.066Z,48.06
2023-05-14T02:12:45.308Z,48.06
2023-05-14T02:15:17.434Z,48.13
2023-05-14T02:17:49.706Z,48.22
2023-05-14T02:20:22.400Z,48.23
2023-05-14T02:22:55.207Z,48.32
2023-05-14T02:25:27.499Z,48.30
2023-05-14T02:27:59.751Z,48.25
2023-05-14T02:30:32.547Z,48.37
2023-05-14T02:33:05.033Z,48.38
2023-05-14T02:35:37.477Z,48.48
2023-05-14T02:38:09.654Z,48.39
2023-05-14T02:40:41.908Z,48.56
2023-05-14T02:43:14.258Z,48.68
2023-05-14T02:45:46.618Z,48.74
2023-05-14T02:48:18.834Z,48.71
2023-05-14T02:50:52.284Z,48.76
2023-05-14T02:53:24.607Z,48.77
2023-05-14T02:55:56.825Z,48.77
2023-05-14T02:58:29.516Z,48.83
2023-05-14T03:01:01.652Z,48.91
2023-05-14T03:03:34.482Z,48.79
2023-05-14T03:06:07.746Z,48.89
2023-05-14T03:08:40.162Z,49.01
2023-05-14T03:11:12.430Z,48.96
2023-05-14T03:13:44.589Z,49.06
2023-05-14T03:16:16.924Z,49.04
2023-05-14T03:18:49.421Z,49.13
2023-05-14T03:21:21.694Z,49.16
2023-05-14T03:23:55.093Z,49.23
2023-05-14T03:26:27.159Z,49.34
2023-05-14T03:29:00.068Z,49.13
2023-05-14T03:31:32.634Z,49.35
2023-05-14T03:34:04.899Z,49.47
2023-05-14T03:36:39.047Z,49.49
2023-05-14T03:39:11.201Z,49.55
2023-05-14T03:41:43.649Z,49.55
2023-05-14T03:44:16.652Z,49.52
2023-05-14T03:46:48.844Z,49.67
2023-05-14T03:49:20.978Z,49.60
2023-05-14T03:51:53.108Z,49.69
2023-05-14T03:54:25.299Z,49.74
2023-05-14T03:56:57.532Z,49.60
2023-05-14T03:59:30.009Z,49.80
2023-05-14T04:02:02.184Z,49.63
2023-05-14T04:04:34.485Z,49.74
2023-05-14T04:07:07.105Z,49.73
2023-05-14T04:09:39.302Z,49.74
2023-05-14T04:12:12.461Z,49.80
2023-05-14T04:14:44.701Z,49.77
2023-05-14T04:17:16.954Z,49.78
2023-05-14T04:19:49.232Z,49.83
2023-05-14T04:22:21.408Z,49.80
2023-05-14T04:24:53.813Z,49.84
2023-05-14T04:27:26.073Z,49.73
2023-05-14T04:29:58.544Z,49.76
2023-05-14T04:32:31.115Z,49.74
2023-05-14T04:35:04.382Z,49.85
2023-05-14T04:37:36.704Z,49.70
2023-05-14T04:40:12.722Z,49.69
2023-05-14T04:42:45.035Z,49.71
2023-05-14T04:45:17.389Z,49.50
2023-05-14T04:47:49.611Z,49.60
2023-05-14T04:50:22.200Z,49.50
2023-05-14T04:52:56.094Z,49.68
2023-05-14T04:55:28.394Z,49.69
2023-05-14T04:58:00.571Z,49.64
2023-05-14T05:00:33.648Z,49.57
2023-05-14T05:03:07.285Z,49.54
2023-05-14T05:05:39.424Z,49.63
2023-05-14T05:08:12.575Z,49.47
2023-05-14T05:10:44.854Z,49.48
2023-05-14T05:13:17.213Z,49.42
2023-05-14T05:15:49.586Z,49.41
2023-05-14T05:18:21.861Z,49.48
2023-05-14T05:20:53.902Z,49.28
2023-05-14T05:23:26.170Z,49.19
2023-05-14T05:25:58.423Z,49.20
2023-05-14T05:28:30.692Z,49.18
2023-05-14T05:31:03.080Z,49.13
2023-05-14T05:33:35.413Z,49.10
2023-05-14T05:36:08.843Z,49.04
2023-05-14T05:38:40.994Z,48.87
2023-05-14T05:41:13.303Z,48.92
2023-05-14T05:43:45.595Z,48.85
2023-05-14T05:46:17.744Z,48.78
2023-05-14T05:48:49.942Z,48.86
2023-05-14T05:51:22.193Z,48.70
2023-05-14T05:53:54.649Z,48.66
2023-05-14T05:56:26.863Z,48.73
2023-05-14T05:58:59.373Z,48.63
2023-05-14T06:01:31.707Z,48.62
2023-05-14T06:04:05.800Z,48.57
2023-05-14T06:06:37.984Z,48.57
2023-05-14T06:09:10.380Z,48.46
2023-05-14T06:11:42.626Z,48.40
2023-05-14T06:14:14.769Z,48.31
2023-05-14T06:16:47.054Z,48.34
2023-05-14T06:19:19.463Z,48.13
2023-05-14T06:21:51.883Z,47.93
2023-05-14T06:24:24.122Z,47.76
2023-05-14T06:26:56.276Z,47.64
2023-05-14T06:29:28.635Z,47.51
2023-05-14T06:32:04.912Z,47.40
2023-05-14T06:34:36.918Z,47.32
2023-05-14T06:37:09.665Z,47.33
2023-05-14T06:39:48.256Z,47.14
2023-05-14T06:42:20.516Z,47.15
2023-05-14T06:44:52.740Z,47.12
2023-05-14T06:47:25.278Z,46.80
2023-05-14T06:49:58.879Z,46.62
2023-05-14T06:52:31.169Z,46.46
2023-05-14T06:55:03.448Z,45.88
2023-05-14T06:57:35.576Z,45.97
2023-05-14T07:00:09.880Z,45.36
2023-05-14T07:02:42.272Z,45.18
2023-05-14T07:05:14.850Z,44.57
2023-05-14T07:07:47.143Z,44.41
2023-05-14T07:10:19.529Z,44.26
2023-05-14T07:12:52.117Z,44.09
2023-05-14T07:15:24.212Z,44.21
2023-05-14T07:17:56.468Z,44.16
2023-05-14T07:20:29.023Z,43.81
2023-05-14T07:23:01.218Z,43.70
2023-05-14T07:25:33.902Z,43.84
2023-05-14T07:28:06.463Z,43.53
2023-05-14T07:30:38.818Z,43.73
2023-05-14T07:33:11.104Z,43.59
2023-05-14T07:35:43.394Z,43.62
2023-05-14T07:38:16.001Z,43.70
2023-05-14T07:40:48.403Z,42.81
2023-05-14T07:43:20.578Z,42.69
2023-05-14T07:45:52.966Z,42.56
2023-05-14T07:48:25.189Z,42.60
2023-05-14T07:50:57.714Z,42.26
2023-05-14T07:53:30.000Z,42.16
2023-05-14T07:56:02.187Z,42.06
2023-05-14T07:58:35.289Z,41.66
2023-05-14T08:01:09.255Z,41.73
2023-05-14T08:03:41.564Z,41.13
2023-05-14T08:06:13.825Z,41.66
2023-05-14T08:08:46.807Z,41.45
2023-05-14T08:11:19.631Z,40.60
2023-05-14T08:13:51.786Z,40.58
2023-05-14T08:16:26.353Z,39.83
2023-05-14T08:18:58.708Z,39.85
2023-05-14T08:21:31.725Z,39.73
2023-05-14T08:24:03.943Z,39.81
2023-05-14T08:26:36.118Z,39.40
2023-05-14T08:29:10.450Z,39.08
2023-05-14T08:31:43.659Z,38.85
2023-05-14T08:34:16.246Z,38.88
2023-05-14T08:36:48.635Z,38.37
2023-05-14T08:39:21.571Z,38.50
2023-05-14T08:41:54.849Z,38.04
2023-05-14T08:44:34.185Z,38.10
2023-05-14T08:47:06.978Z,38.04
2023-05-14T08:49:43.231Z,37.63
2023-05-14T08:52:17.458Z,37.54
2023-05-14T08:54:51.960Z,37.67
2023-05-14T08:57:26.870Z,37.45
2023-05-14T08:59:59.813Z,37.04
2023-05-14T09:02:33.908Z,36.48
2023-05-14T09:05:07.481Z,36.05
2023-05-14T09:07:40.057Z,36.59
2023-05-14T09:10:15.525Z,36.45
2023-05-14T09:12:47.651Z,35.84
2023-05-14T09:15:20.061Z,36.00
2023-05-14T09:17:53.290Z,35.56
2023-05-14T09:20:26.069Z,35.59
2023-05-14T09:23:00.145Z,35.42
2023-05-14T09:25:34.204Z,35.41
2023-05-14T09:28:11.300Z,35.44
2023-05-14T09:30:43.572Z,34.74
2023-05-14T09:33:26.848Z,34.98
2023-05-14T09:36:01.680Z,34.68
2023-05-14T09:38:34.811Z,34.43
2023-05-14T09:41:07.020Z,34.27
2023-05-14T09:43:39.385Z,34.51
2023-05-14T09:46:11.709Z,34.60
2023-05-14T09:48:44.135Z,34.40
2023-05-14T09:51:17.987Z,34.41
2023-05-14T09:53:52.239Z,34.23
2023-05-14T09:56:24.845Z,34.07
2023-05-14T09:58:57.053Z,33.56
2023-05-14T10:01:31.302Z,33.75
2023-05-14T10:04:07.955Z,33.09
2023-05-14T10:06:42.292Z,32.99
2023-05-14T10:09:18.076Z,33.03
2023-05-14T10:11:54.751Z,33.04
2023-05-14T10:14:30.532Z,32.80
2023-05-14T10:17:04.521Z,32.46
2023-05-14T10:19:40.427Z,31.81
2023-05-14T10:22:16.899Z,32.43
2023-05-14T10:24:52.463Z,31.82
2023-05-14T10:27:23.874Z,32.08
2023-05-14T10:29:57.553Z,31.91
2023-05-14T10:32:33.252Z,31.85
2023-05-14T10:35:18.718Z,31.04
2023-05-14T10:37:53.965Z,31.18
2023-05-14T10:40:26.593Z,30.93
2023-05-14T10:43:02.162Z,31.27
2023-05-14T10:45:34.428Z,31.19
2023-05-14T10:48:07.497Z,31.26
2023-05-14T10:50:39.950Z,31.35
2023-05-14T10:53:14.428Z,31.22
2023-05-14T10:55:47.438Z,31.14
2023-05-14T10:58:20.874Z,31.19
2023-05-14T11:00:58.003Z,31.11
2023-05-14T11:03:33.801Z,31.10
2023-05-14T11:06:07.619Z,30.47
2023-05-14T11:08:40.513Z,30.82
2023-05-14T11:11:13.839Z,31.05
2023-05-14T11:13:47.333Z,30.89
2023-05-14T11:16:23.341Z,30.87
2023-05-14T11:19:05.504Z,30.76
2023-05-14T11:21:37.797Z,30.73
2023-05-14T11:24:10.917Z,30.73
2023-05-14T11:26:43.422Z,30.64
2023-05-14T11:29:15.669Z,30.45
2023-05-14T11:31:48.017Z,30.10
2023-05-14T11:34:20.244Z,30.23
2023-05-14T11:36:52.349Z,30.31
2023-05-14T11:39:24.573Z,30.13
2023-05-14T11:41:56.916Z,30.32
2023-05-14T11:44:29.531Z,30.41
2023-05-14T11:47:02.603Z,30.46
2023-05-14T11:49:36.120Z,30.54
2023-05-14T11:52:10.281Z,30.35
2023-05-14T11:54:43.867Z,30.40
2023-05-14T11:57:17.802Z,30.42
2023-05-14T11:59:56.868Z,30.50
2023-05-14T12:02:30.559Z,30.70
2023-05-14T12:05:03.438Z,30.53
2023-05-14T12:07:39.007Z,30.62
2023-05-14T12:10:10.396Z,30.61
2023-05-14T12:12:46.202Z,30.45
2023-05-14T12:15:20.177Z,30.38
2023-05-14T12:17:55.807Z,30.69
2023-05-14T12:20:26.516Z,30.58
2023-05-14T12:22:58.877Z,30.65
2023-05-14T12:25:32.321Z,30.53
2023-05-14T12:28:14.569Z,30.64
2023-05-14T12:30:47.208Z,30.44
2023-05-14T12:33:22.805Z,30.51
2023-05-14T12:35:53.770Z,30.68
2023-05-14T12:38:26.000Z,30.74
2023-05-14T12:40:58.343Z,30.74
2023-05-14T12:43:32.458Z,30.49
2023-05-14T12:46:04.732Z,30.58
2023-05-14T12:48:37.193Z,30.48
2023-05-14T12:51:09.513Z,30.66
2023-05-14T12:53:41.902Z,30.61
2023-05-14T12:56:15.181Z,30.77
2023-05-14T12:58:47.874Z,30.72
2023-05-14T13:01:20.071Z,30.72
2023-05-14T13:03:52.361Z,30.77
2023-05-14T13:06:24.658Z,30.68
2023-05-14T13:09:00.016Z,30.91
2023-05-14T13:11:32.358Z,30.69
2023-05-14T13:14:05.064Z,30.64
2023-05-14T13:16:37.513Z,30.46
2023-05-14T13:19:09.899Z,30.59
2023-05-14T13:21:42.367Z,30.52
2023-05-14T13:24:14.421Z,30.79
2023-05-14T13:26:46.756Z,30.97
2023-05-14T13:29:18.980Z,30.71
2023-05-14T13:31:51.226Z,30.74
2023-05-14T13:34:23.967Z,30.79
2023-05-14T13:36:56.160Z,30.75
2023-05-14T13:39:28.434Z,30.84
2023-05-14T13:42:01.146Z,30.89
2023-05-14T13:44:33.337Z,30.79
2023-05-14T13:47:05.912Z,30.91
2023-05-14T13:49:38.321Z,31.00
2023-05-14T13:52:10.773Z,31.02
2023-05-14T13:54:43.230Z,30.99
2023-05-14T13:57:15.602Z,31.08
2023-05-14T13:59:48.965Z,31.11
2023-05-14T14:02:21.117Z,31.17
2023-05-14T14:04:53.304Z,30.95
2023-05-14T14:07:25.568Z,31.01
2023-05-14T14:09:57.786Z,31.22
2023-05-14T14:12:30.322Z,31.30
2023-05-14T14:15:03.836Z,31.33
2023-05-14T14:17:36.887Z,31.31
2023-05-14T14:20:10.897Z,31.23
2023-05-14T14:22:44.211Z,31.19
2023-05-14T14:25:16.675Z,31.26
2023-05-14T14:27:49.355Z,31.31
2023-05-14T14:30:21.779Z,31.27
2023-05-14T14:32:54.110Z,31.53
2023-05-14T14:35:26.768Z,31.59
2023-05-14T14:37:59.292Z,31.71
2023-05-14T14:40:31.516Z,31.71
2023-05-14T14:43:03.778Z,31.69
2023-05-14T14:45:36.296Z,31.80
2023-05-14T14:48:28.927Z,31.82
2023-05-14T14:51:02.299Z,31.85
2023-05-14T14:53:34.950Z,31.88
2023-05-14T14:56:07.798Z,31.95
2023-05-14T14:58:40.053Z,31.94
2023-05-14T15:01:12.321Z,32.08
2023-05-14T15:03:45.691Z,32.07
2023-05-14T15:06:17.991Z,32.29
2023-05-14T15:08:50.139Z,32.39
2023-05-14T15:11:22.494Z,32.46
2023-05-14T15:13:55.131Z,32.47
2023-05-14T15:16:27.415Z,32.60
2023-05-14T15:18:59.636Z,32.55
2023-05-14T15:21:32.018Z,32.56
2023-05-14T15:24:06.256Z,32.81
2023-05-14T15:26:38.617Z,32.76
2023-05-14T15:29:10.759Z,32.42
2023-05-14T15:31:43.095Z,32.55
2023-05-14T15:34:15.365Z,32.59
2023-05-14T15:36:47.688Z,32.50
2023-05-14T15:39:20.119Z,32.33
2023-05-14T15:41:52.339Z,32.31
2023-05-14T15:44:24.498Z,32.36
2023-05-14T15:46:56.814Z,32.34
2023-05-14T15:49:29.163Z,32.24
2023-05-14T15:52:03.074Z,32.19
2023-05-14T15:54:34.889Z,32.17
2023-05-14T15:57:07.760Z,32.10
2023-05-14T15:59:40.057Z,32.16
2023-05-14T16:02:12.369Z,32.16
2023-05-14T16:04:45.397Z,32.04
2023-05-14T16:07:17.534Z,32.31
2023-05-14T16:09:49.799Z,32.04
2023-05-14T16:12:21.808Z,32.09
2023-05-14T16:14:54.094Z,32.15
2023-05-14T16:17:28.003Z,32.08
2023-05-14T16:20:00.296Z,32.11
2023-05-14T16:22:34.759Z,32.22
2023-05-14T16:25:07.711Z,32.36
2023-05-14T16:27:39.940Z,32.26
2023-05-14T16:30:13.421Z,32.36
2023-05-14T16:32:48.639Z,32.42
2023-05-14T16:35:21.329Z,32.41
2023-05-14T16:37:54.537Z,32.23
2023-05-14T16:40:26.831Z,32.02
2023-05-14T16:42:58.981Z,31.89
2023-05-14T16:45:32.697Z,32.06
2023-05-14T16:48:05.104Z,31.90
2023-05-14T16:50:37.413Z,31.69
2023-05-14T16:53:09.670Z,31.77
2023-05-14T16:55:41.967Z,32.06
2023-05-14T16:58:14.304Z,32.05
2023-05-14T17:00:46.542Z,32.03
2023-05-14T17:03:18.925Z,31.94
2023-05-14T17:05:51.727Z,32.13
2023-05-14T17:08:23.988Z,31.82
2023-05-14T17:10:56.347Z,32.04
2023-05-14T17:13:27.306Z,32.02
2023-05-14T17:16:17.283Z,32.09
2023-05-14T17:18:49.152Z,32.25
2023-05-14T17:21:21.457Z,32.16
2023-05-14T17:23:53.793Z,32.20
2023-05-14T17:26:26.552Z,32.37
2023-05-14T17:28:58.909Z,32.51
2023-05-14T17:31:31.418Z,32.60
2023-05-14T17:34:03.637Z,32.42
2023-05-14T17:36:36.001Z,32.41
2023-05-14T17:39:08.289Z,32.63
2023-05-14T17:41:42.122Z,32.61
2023-05-14T17:44:14.285Z,32.59
2023-05-14T17:46:46.715Z,32.50
2023-05-14T17:49:19.203Z,32.64
2023-05-14T17:51:51.518Z,32.56
2023-05-14T17:54:23.726Z,32.74
2023-05-14T17:56:56.296Z,32.81
2023-05-14T17:59:28.633Z,32.63
2023-05-14T18:02:01.014Z,32.80
2023-05-14T18:04:33.160Z,32.70
2023-05-14T18:07:05.525Z,32.85
2023-05-14T18:09:37.716Z,33.04
2023-05-14T18:12:11.554Z,33.02
2023-05-14T18:14:45.585Z,33.08
2023-05-14T18:17:18.475Z,32.95
2023-05-14T18:19:50.673Z,33.08
2023-05-14T18:22:23.502Z,33.06
2023-05-14T18:24:57.901Z,33.20
2023-05-14T18:27:30.187Z,33.22
2023-05-14T18:30:03.140Z,33.26
2023-05-14T18:32:35.492Z,33.18
2023-05-14T18:35:08.555Z,33.18
2023-05-14T18:37:41.255Z,33.21
2023-05-14T18:40:17.734Z,33.38
2023-05-14T18:42:50.834Z,33.52
2023-05-14T18:45:24.380Z,33.46
2023-05-14T18:47:57.865Z,33.72
2023-05-14T18:50:30.750Z,33.53
2023-05-14T18:53:02.988Z,33.63
2023-05-14T18:55:36.064Z,33.75
2023-05-14T18:58:09.232Z,33.89
2023-05-14T19:00:41.485Z,33.86
2023-05-14T19:03:14.050Z,34.17
2023-05-14T19:05:47.178Z,34.03
2023-05-14T19:08:19.920Z,34.16
2023-05-14T19:10:53.009Z,34.35
2023-05-14T19:13:25.322Z,34.39
2023-05-14T19:15:58.006Z,34.30
2023-05-14T19:18:30.360Z,34.46
2023-05-14T19:21:02.885Z,34.46
2023-05-14T19:23:35.111Z,34.61
2023-05-14T19:26:07.812Z,34.69
2023-05-14T19:28:40.166Z,34.74
2023-05-14T19:31:12.429Z,34.80
2023-05-14T19:33:44.957Z,34.83
2023-05-14T19:36:17.110Z,35.10
2023-05-14T19:38:49.369Z,35.15
2023-05-14T19:41:21.731Z,35.20
2023-05-14T19:43:53.769Z,35.19
2023-05-14T19:46:25.985Z,35.41
2023-05-14T19:48:58.165Z,35.50
2023-05-14T19:51:30.656Z,35.53
2023-05-14T19:54:02.935Z,35.64
2023-05-14T19:56:35.236Z,35.71
2023-05-14T19:59:07.666Z,35.89
2023-05-14T20:01:39.914Z,35.82
2023-05-14T20:04:14.040Z,35.99
2023-05-14T20:06:47.241Z,36.14
2023-05-14T20:09:20.152Z,36.25
2023-05-14T20:11:52.395Z,36.21
2023-05-14T20:14:24.588Z,36.31
2023-05-14T20:16:58.183Z,36.33
2023-05-14T20:19:31.080Z,36.60
2023-05-14T20:22:03.360Z,36.63
2023-05-14T20:24:35.637Z,36.79
2023-05-14T20:27:10.181Z,36.80
2023-05-14T20:29:42.370Z,36.88
2023-05-14T20:32:15.057Z,37.04
2023-05-14T20:34:47.313Z,37.02
2023-05-14T20:37:19.880Z,37.16
2023-05-14T20:39:53.193Z,37.23
2023-05-14T20:42:25.670Z,37.28
2023-05-14T20:44:58.275Z,37.47
2023-05-14T20:47:32.076Z,37.59
2023-05-14T20:50:04.782Z,37.63
2023-05-14T20:52:37.087Z,37.78
2023-05-14T20:55:10.885Z,37.92
2023-05-14T20:57:43.584Z,38.06
2023-05-14T21:00:17.867Z,38.17
2023-05-14T21:02:50.321Z,38.26
2023-05-14T21:05:23.066Z,38.42
2023-05-14T21:07:55.813Z,38.43
2023-05-14T21:10:28.315Z,38.62
2023-05-14T21:13:00.496Z,38.67
2023-05-14T21:15:32.845Z,38.74
2023-05-14T21:18:05.215Z,38.83
2023-05-14T21:20:37.398Z,39.02
2023-05-14T21:23:09.846Z,39.07
2023-05-14T21:25:41.920Z,39.19
2023-05-14T21:28:14.165Z,39.33
2023-05-14T21:30:46.373Z,39.36
2023-05-14T21:33:18.986Z,39.44
2023-05-14T21:35:51.145Z,39.55
2023-05-14T21:38:23.558Z,39.55
2023-05-14T21:40:55.669Z,39.66
2023-05-14T21:43:27.874Z,39.73
2023-05-14T21:46:00.218Z,39.81
2023-05-14T21:48:32.496Z,39.96
2023-05-14T21:51:06.471Z,40.02
2023-05-14T21:53:38.499Z,40.09
2023-05-14T21:56:10.909Z,40.27
2023-05-14T21:58:43.148Z,40.27
2023-05-14T22:01:15.545Z,40.43
2023-05-14T22:03:47.903Z,40.52
2023-05-14T22:06:20.272Z,40.57
2023-05-14T22:08:52.569Z,40.69
2023-05-14T22:11:24.697Z,40.82
2023-05-14T22:13:56.932Z,40.80
2023-05-14T22:16:29.274Z,40.90
2023-05-14T22:19:01.482Z,41.06
2023-05-14T22:21:33.994Z,41.03
2023-05-14T22:24:07.190Z,41.16
2023-05-14T22:26:39.504Z,41.33
2023-05-14T22:29:11.778Z,41.20
2023-05-14T22:31:44.362Z,41.40
2023-05-14T22:34:16.685Z,41.59
2023-05-14T22:36:48.987Z,41.58
2023-05-14T22:39:21.146Z,41.73
2023-05-14T22:41:55.253Z,41.72
2023-05-14T22:44:29.888Z,41.83
2023-05-14T22:47:02.528Z,41.93
2023-05-14T22:49:34.773Z,41.98
2023-05-14T22:52:08.076Z,42.01
2023-05-14T22:54:40.352Z,42.16
2023-05-14T22:57:12.575Z,42.23
2023-05-14T22:59:44.736Z,42.14
2023-05-14T23:02:17.082Z,42.42
2023-05-14T23:04:49.576Z,42.40
2023-05-14T23:07:21.929Z,42.55
2023-05-14T23:09:54.192Z,42.57
2023-05-14T23:12:26.458Z,42.71
2023-05-14T23:14:59.283Z,42.75
2023-05-14T23:17:31.463Z,42.86
2023-05-14T23:20:06.146Z,42.88
2023-05-14T23:22:38.343Z,42.91
2023-05-14T23:25:11.700Z,43.04
2023-05-14T23:27:44.061Z,43.11
2023-05-14T23:30:16.823Z,43.29
2023-05-14T23:32:49.202Z,43.43
2023-05-14T23:35:21.754Z,43.31
2023-05-14T23:37:55.487Z,43.46
2023-05-14T23:40:27.927Z,43.45
2023-05-14T23:43:00.635Z,43.65
2023-05-14T23:45:32.941Z,43.55
2023-05-14T23:48:05.573Z,43.70
2023-05-14T23:50:38.229Z,43.68
2023-05-14T23:53:10.469Z,43.83
2023-05-14T23:55:42.768Z,43.86
2023-05-14T23:58:15.042Z,43.88
